sensor_id;sensor_type;location;lat;lon;timestamp;pressure;altitude;pressure_sealevel;temperature;humidity
32251;BME280;41295;48.518;9.206;2023-04-02T00:00:27;96434.94;;;9.09;67.23
32251;BME280;41295;48.518;9.206;2023-04-02T00:02:32;96431.09;;;9.18;66.96
32251;BME280;41295;48.518;9.206;2023-04-02T00:04:35;96439.47;;;9.04;67.50
32251;BME280;41295;48.518;9.206;2023-04-02T00:06:39;96439.06;;;8.94;67.60
32251;BME280;41295;48.518;9.206;2023-04-02T00:08:45;96432.31;;;8.90;68.24
32251;BME280;41295;48.518;9.206;2023-04-02T00:10:50;96436.53;;;8.93;68.25
32251;BME280;41295;48.518;9.206;2023-04-02T00:12:59;96440.31;;;8.85;68.61
32251;BME280;41295;48.518;9.206;2023-04-02T00:15:02;96438.97;;;8.76;68.52
32251;BME280;41295;48.518;9.206;2023-04-02T00:17:05;96437.41;;;8.72;68.57
32251;BME280;41295;48.518;9.206;2023-04-02T00:19:13;96443.16;;;8.79;68.69
32251;BME280;41295;48.518;9.206;2023-04-02T00:21:20;96449.94;;;8.83;68.18
32251;BME280;41295;48.518;9.206;2023-04-02T00:23:25;96446.69;;;8.78;68.55
32251;BME280;41295;48.518;9.206;2023-04-02T00:25:29;96449.44;;;8.75;68.51
32251;BME280;41295;48.518;9.206;2023-04-02T00:27:35;96441.81;;;8.70;68.50
32251;BME280;41295;48.518;9.206;2023-04-02T00:29:44;96442.66;;;8.71;68.47
32251;BME280;41295;48.518;9.206;2023-04-02T00:31:49;96444.56;;;8.67;68.71
32251;BME280;41295;48.518;9.206;2023-04-02T00:33:52;96442.50;;;8.75;68.04
32251;BME280;41295;48.518;9.206;2023-04-02T00:35:56;96452.19;;;8.72;68.29
32251;BME280;41295;48.518;9.206;2023-04-02T00:37:59;96445.13;;;8.74;68.21
32251;BME280;41295;48.518;9.206;2023-04-02T00:40:06;96455.59;;;8.72;67.96
32251;BME280;41295;48.518;9.206;2023-04-02T00:42:11;96452.28;;;8.69;68.06
32251;BME280;41295;48.518;9.206;2023-04-02T00:44:15;96450.69;;;8.66;68.34
32251;BME280;41295;48.518;9.206;2023-04-02T00:46:27;96453.34;;;8.64;68.80
32251;BME280;41295;48.518;9.206;2023-04-02T00:48:38;96456.84;;;8.63;68.47
32251;BME280;41295;48.518;9.206;2023-04-02T00:50:43;96454.25;;;8.63;68.87
32251;BME280;41295;48.518;9.206;2023-04-02T00:52:49;96453.34;;;8.64;68.65
32251;BME280;41295;48.518;9.206;2023-04-02T00:54:59;96454.25;;;8.63;68.49
32251;BME280;41295;48.518;9.206;2023-04-02T00:57:12;96452.72;;;8.59;68.34
32251;BME280;41295;48.518;9.206;2023-04-02T00:59:21;96461.06;;;8.66;68.14
32251;BME280;41295;48.518;9.206;2023-04-02T01:01:27;96456.13;;;8.60;68.19
32251;BME280;41295;48.518;9.206;2023-04-02T01:03:35;96459.72;;;8.57;68.21
32251;BME280;41295;48.518;9.206;2023-04-02T01:05:39;96454.59;;;8.56;68.29
32251;BME280;41295;48.518;9.206;2023-04-02T01:07:53;96459.81;;;8.54;68.37
32251;BME280;41295;48.518;9.206;2023-04-02T01:10:13;96466.06;;;8.50;68.56
32251;BME280;41295;48.518;9.206;2023-04-02T01:12:30;96462.59;;;8.49;68.27
32251;BME280;41295;48.518;9.206;2023-04-02T01:14:43;96468.72;;;8.48;68.30
32251;BME280;41295;48.518;9.206;2023-04-02T01:16:51;96474.88;;;8.46;68.71
32251;BME280;41295;48.518;9.206;2023-04-02T01:19:01;96473.34;;;8.41;68.25
32251;BME280;41295;48.518;9.206;2023-04-02T01:21:29;96474.50;;;8.34;68.18
32251;BME280;41295;48.518;9.206;2023-04-02T01:23:44;96478.19;;;8.28;68.41
32251;BME280;41295;48.518;9.206;2023-04-02T01:25:56;96476.44;;;8.29;68.24
32251;BME280;41295;48.518;9.206;2023-04-02T01:28:06;96473.22;;;8.22;68.31
32251;BME280;41295;48.518;9.206;2023-04-02T01:30:13;96480.44;;;8.15;68.87
32251;BME280;41295;48.518;9.206;2023-04-02T01:32:19;96473.66;;;8.11;68.62
32251;BME280;41295;48.518;9.206;2023-04-02T01:34:24;96474.59;;;8.10;69.03
32251;BME280;41295;48.518;9.206;2023-04-02T01:36:35;96478.19;;;8.06;68.99
32251;BME280;41295;48.518;9.206;2023-04-02T01:38:46;96473.00;;;8.06;69.26
32251;BME280;41295;48.518;9.206;2023-04-02T01:40:58;96469.75;;;8.01;69.30
32251;BME280;41295;48.518;9.206;2023-04-02T01:43:11;96474.13;;;8.00;69.19
32251;BME280;41295;48.518;9.206;2023-04-02T01:45:20;96475.88;;;8.00;68.96
32251;BME280;41295;48.518;9.206;2023-04-02T01:47:23;96474.28;;;7.96;69.64
32251;BME280;41295;48.518;9.206;2023-04-02T01:49:29;96478.59;;;7.97;69.46
32251;BME280;41295;48.518;9.206;2023-04-02T01:51:34;96479.13;;;8.05;69.42
32251;BME280;41295;48.518;9.206;2023-04-02T01:53:36;96480.25;;;7.98;70.01
32251;BME280;41295;48.518;9.206;2023-04-02T01:55:41;96484.66;;;7.96;70.30
32251;BME280;41295;48.518;9.206;2023-04-02T01:57:47;96475.13;;;7.96;70.34
32251;BME280;41295;48.518;9.206;2023-04-02T01:59:51;96482.38;;;8.10;70.47
32251;BME280;41295;48.518;9.206;2023-04-02T02:02:00;96481.34;;;8.14;70.28
32251;BME280;41295;48.518;9.206;2023-04-02T02:04:04;96483.03;;;8.15;70.18
32251;BME280;41295;48.518;9.206;2023-04-02T02:06:08;96483.81;;;8.17;70.11
32251;BME280;41295;48.518;9.206;2023-04-02T02:08:25;96485.50;;;8.18;70.35
32251;BME280;41295;48.518;9.206;2023-04-02T02:10:34;96488.00;;;8.22;70.34
32251;BME280;41295;48.518;9.206;2023-04-02T02:12:37;96488.00;;;8.22;70.46
32251;BME280;41295;48.518;9.206;2023-04-02T02:14:45;96486.66;;;8.11;70.70
32251;BME280;41295;48.518;9.206;2023-04-02T02:16:48;96488.09;;;8.18;70.52
32251;BME280;41295;48.518;9.206;2023-04-02T02:18:58;96489.44;;;8.06;70.98
32251;BME280;41295;48.518;9.206;2023-04-02T02:21:03;96487.75;;;8.05;71.47
32251;BME280;41295;48.518;9.206;2023-04-02T02:23:09;96491.13;;;8.07;71.61
32251;BME280;41295;48.518;9.206;2023-04-02T02:25:14;96491.31;;;8.03;71.85
32251;BME280;41295;48.518;9.206;2023-04-02T02:27:41;96490.47;;;8.02;72.13
32251;BME280;41295;48.518;9.206;2023-04-02T02:29:48;96504.28;;;8.03;72.14
32251;BME280;41295;48.518;9.206;2023-04-02T02:31:54;96501.63;;;8.04;72.06
32251;BME280;41295;48.518;9.206;2023-04-02T02:34:02;96504.22;;;8.04;72.05
32251;BME280;41295;48.518;9.206;2023-04-02T02:36:13;96493.03;;;8.04;72.51
32251;BME280;41295;48.518;9.206;2023-04-02T02:38:39;96504.22;;;8.04;72.54
32251;BME280;41295;48.518;9.206;2023-04-02T02:40:44;96504.16;;;8.06;72.52
32251;BME280;41295;48.518;9.206;2023-04-02T02:42:51;96497.16;;;8.08;72.43
32251;BME280;41295;48.518;9.206;2023-04-02T02:44:56;96499.69;;;8.10;72.37
32251;BME280;41295;48.518;9.206;2023-04-02T02:47:02;96511.78;;;8.11;72.18
32251;BME280;41295;48.518;9.206;2023-04-02T02:49:09;96508.13;;;8.15;72.46
32251;BME280;41295;48.518;9.206;2023-04-02T02:51:19;96509.84;;;8.16;72.46
32251;BME280;41295;48.518;9.206;2023-04-02T02:53:25;96510.56;;;8.20;72.18
32251;BME280;41295;48.518;9.206;2023-04-02T02:55:29;96515.63;;;8.23;72.30
32251;BME280;41295;48.518;9.206;2023-04-02T02:57:36;96520.84;;;8.23;72.15
32251;BME280;41295;48.518;9.206;2023-04-02T02:59:41;96530.31;;;8.24;72.35
32251;BME280;41295;48.518;9.206;2023-04-02T03:01:44;96525.06;;;8.25;71.98
32251;BME280;41295;48.518;9.206;2023-04-02T03:03:51;96519.81;;;8.27;71.86
32251;BME280;41295;48.518;9.206;2023-04-02T03:06:00;96527.47;;;8.30;71.81
32251;BME280;41295;48.518;9.206;2023-04-02T03:08:06;96532.59;;;8.32;71.86
32251;BME280;41295;48.518;9.206;2023-04-02T03:10:14;96531.69;;;8.33;71.71
32251;BME280;41295;48.518;9.206;2023-04-02T03:12:33;96530.84;;;8.32;71.62
32251;BME280;41295;48.518;9.206;2023-04-02T03:14:41;96534.34;;;8.31;71.70
32251;BME280;41295;48.518;9.206;2023-04-02T03:16:49;96538.66;;;8.32;71.88
32251;BME280;41295;48.518;9.206;2023-04-02T03:19:01;96537.78;;;8.32;72.04
32251;BME280;41295;48.518;9.206;2023-04-02T03:21:16;96537.78;;;8.32;72.13
32251;BME280;41295;48.518;9.206;2023-04-02T03:23:26;96541.31;;;8.30;72.10
32251;BME280;41295;48.518;9.206;2023-04-02T03:25:34;96535.25;;;8.30;72.16
32251;BME280;41295;48.518;9.206;2023-04-02T03:27:43;96548.19;;;8.32;72.39
32251;BME280;41295;48.518;9.206;2023-04-02T03:29:57;96543.84;;;8.32;71.81
32251;BME280;41295;48.518;9.206;2023-04-02T03:32:04;96548.13;;;8.33;72.09
32251;BME280;41295;48.518;9.206;2023-04-02T03:34:12;96551.44;;;8.37;72.18
32251;BME280;41295;48.518;9.206;2023-04-02T03:36:19;96550.59;;;8.36;72.40
32251;BME280;41295;48.518;9.206;2023-04-02T03:38:26;96551.31;;;8.40;72.39
32251;BME280;41295;48.518;9.206;2023-04-02T03:40:33;96559.16;;;8.38;72.22
32251;BME280;41295;48.518;9.206;2023-04-02T03:42:41;96552.66;;;8.50;71.51
32251;BME280;41295;48.518;9.206;2023-04-02T03:44:49;96559.47;;;8.53;71.47
32251;BME280;41295;48.518;9.206;2023-04-02T03:46:55;96560.75;;;8.42;71.34
32251;BME280;41295;48.518;9.206;2023-04-02T03:49:01;96561.66;;;8.41;71.42
32251;BME280;41295;48.518;9.206;2023-04-02T03:51:13;96564.91;;;8.47;71.32
32251;BME280;41295;48.518;9.206;2023-04-02T03:53:23;96570.88;;;8.49;71.17
32251;BME280;41295;48.518;9.206;2023-04-02T03:55:29;96571.84;;;8.46;71.23
32251;BME280;41295;48.518;9.206;2023-04-02T03:57:36;96567.56;;;8.45;71.45
32251;BME280;41295;48.518;9.206;2023-04-02T03:59:43;96577.94;;;8.45;72.01
32251;BME280;41295;48.518;9.206;2023-04-02T04:01:54;96575.31;;;8.47;71.55
32251;BME280;41295;48.518;9.206;2023-04-02T04:04:03;96583.88;;;8.49;71.69
32251;BME280;41295;48.518;9.206;2023-04-02T04:06:09;96583.88;;;8.49;71.63
32251;BME280;41295;48.518;9.206;2023-04-02T04:08:17;96589.91;;;8.49;71.69
32251;BME280;41295;48.518;9.206;2023-04-02T04:10:24;96583.75;;;8.52;71.69
32251;BME280;41295;48.518;9.206;2023-04-02T04:12:31;96588.78;;;8.57;71.21
32251;BME280;41295;48.518;9.206;2023-04-02T04:14:40;96588.91;;;8.53;71.68
32251;BME280;41295;48.518;9.206;2023-04-02T04:16:48;96590.53;;;8.56;71.44
32251;BME280;41295;48.518;9.206;2023-04-02T04:18:59;96599.28;;;8.53;71.67
32251;BME280;41295;48.518;9.206;2023-04-02T04:21:11;96597.53;;;8.54;71.96
32251;BME280;41295;48.518;9.206;2023-04-02T04:23:26;96604.41;;;8.55;71.72
32251;BME280;41295;48.518;9.206;2023-04-02T04:25:31;96602.78;;;8.52;71.96
32251;BME280;41295;48.518;9.206;2023-04-02T04:27:38;96611.44;;;8.53;71.86
32251;BME280;41295;48.518;9.206;2023-04-02T04:29:47;96606.13;;;8.56;71.81
32251;BME280;41295;48.518;9.206;2023-04-02T04:31:51;96609.75;;;8.52;71.71
32251;BME280;41295;48.518;9.206;2023-04-02T04:33:58;96614.88;;;8.53;72.07
32251;BME280;41295;48.518;9.206;2023-04-02T04:36:17;96614.81;;;8.55;72.06
32251;BME280;41295;48.518;9.206;2023-04-02T04:38:31;96617.41;;;8.55;71.97
32251;BME280;41295;48.518;9.206;2023-04-02T04:40:41;96615.78;;;8.52;72.59
32251;BME280;41295;48.518;9.206;2023-04-02T04:42:47;96618.44;;;8.51;72.43
32251;BME280;41295;48.518;9.206;2023-04-02T04:44:54;96621.03;;;8.51;72.65
32251;BME280;41295;48.518;9.206;2023-04-02T04:47:01;96624.41;;;8.53;72.81
32251;BME280;41295;48.518;9.206;2023-04-02T04:49:09;96624.22;;;8.59;72.48
32251;BME280;41295;48.518;9.206;2023-04-02T04:51:18;96623.63;;;8.51;72.44
32251;BME280;41295;48.518;9.206;2023-04-02T04:53:25;96627.22;;;8.48;72.73
32251;BME280;41295;48.518;9.206;2023-04-02T04:55:36;96625.22;;;8.55;72.31
32251;BME280;41295;48.518;9.206;2023-04-02T04:57:40;96628.03;;;8.49;72.43
32251;BME280;41295;48.518;9.206;2023-04-02T04:59:48;96640.88;;;8.53;72.28
32251;BME280;41295;48.518;9.206;2023-04-02T05:01:58;96638.44;;;8.49;72.63
32251;BME280;41295;48.518;9.206;2023-04-02T05:04:05;96640.19;;;8.48;73.48
32251;BME280;41295;48.518;9.206;2023-04-02T05:06:21;96641.75;;;8.52;72.94
32251;BME280;41295;48.518;9.206;2023-04-02T05:08:29;96644.41;;;8.51;73.34
32251;BME280;41295;48.518;9.206;2023-04-02T05:10:39;96643.69;;;8.47;73.39
32251;BME280;41295;48.518;9.206;2023-04-02T05:12:49;96636.44;;;8.57;73.36
32251;BME280;41295;48.518;9.206;2023-04-02T05:14:57;96643.75;;;8.46;74.06
32251;BME280;41295;48.518;9.206;2023-04-02T05:17:03;96644.84;;;8.40;74.34
32251;BME280;41295;48.518;9.206;2023-04-02T05:19:10;96647.44;;;8.40;74.09
32251;BME280;41295;48.518;9.206;2023-04-02T05:21:18;96653.53;;;8.39;74.34
32251;BME280;41295;48.518;9.206;2023-04-02T05:23:25;96652.81;;;8.35;75.20
32251;BME280;41295;48.518;9.206;2023-04-02T05:25:29;96656.22;;;8.37;75.23
32251;BME280;41295;48.518;9.206;2023-04-02T05:27:39;96661.47;;;8.36;75.16
32251;BME280;41295;48.518;9.206;2023-04-02T05:29:47;96659.75;;;8.35;75.73
32251;BME280;41295;48.518;9.206;2023-04-02T05:31:54;96662.19;;;8.39;75.06
32251;BME280;41295;48.518;9.206;2023-04-02T05:33:58;96664.94;;;8.35;75.50
32251;BME280;41295;48.518;9.206;2023-04-02T05:36:04;96660.56;;;8.37;75.81
32251;BME280;41295;48.518;9.206;2023-04-02T05:38:20;96669.69;;;8.47;75.11
32251;BME280;41295;48.518;9.206;2023-04-02T05:40:28;96671.72;;;8.39;75.70
32251;BME280;41295;48.518;9.206;2023-04-02T05:42:36;96671.91;;;8.34;75.94
32251;BME280;41295;48.518;9.206;2023-04-02T05:44:53;96678.72;;;8.37;75.85
32251;BME280;41295;48.518;9.206;2023-04-02T05:46:59;96679.34;;;8.43;75.39
32251;BME280;41295;48.518;9.206;2023-04-02T05:49:06;96682.72;;;8.46;75.78
32251;BME280;41295;48.518;9.206;2023-04-02T05:51:16;96680.78;;;8.51;75.31
32251;BME280;41295;48.518;9.206;2023-04-02T05:53:23;96684.19;;;8.53;75.42
32251;BME280;41295;48.518;9.206;2023-04-02T05:55:41;96680.66;;;8.56;75.76
32251;BME280;41295;48.518;9.206;2023-04-02T05:57:50;96691.31;;;8.48;76.25
32251;BME280;41295;48.518;9.206;2023-04-02T06:00:16;96688.84;;;8.45;76.24
32251;BME280;41295;48.518;9.206;2023-04-02T06:02:23;96689.91;;;8.39;76.54
32251;BME280;41295;48.518;9.206;2023-04-02T06:04:35;96688.25;;;8.38;76.29
32251;BME280;41295;48.518;9.206;2023-04-02T06:06:46;96688.41;;;8.33;76.76
32251;BME280;41295;48.518;9.206;2023-04-02T06:08:55;96695.41;;;8.31;76.88
32251;BME280;41295;48.518;9.206;2023-04-02T06:11:04;96698.50;;;8.41;76.96
32251;BME280;41295;48.518;9.206;2023-04-02T06:13:13;96694.16;;;8.41;77.37
32251;BME280;41295;48.518;9.206;2023-04-02T06:15:19;96700.38;;;8.37;77.27
32251;BME280;41295;48.518;9.206;2023-04-02T06:17:22;96702.06;;;8.38;77.47
32251;BME280;41295;48.518;9.206;2023-04-02T06:19:30;96710.59;;;8.42;77.82
32251;BME280;41295;48.518;9.206;2023-04-02T06:21:33;96710.75;;;8.37;77.74
32251;BME280;41295;48.518;9.206;2023-04-02T06:23:37;96713.25;;;8.40;77.61
32251;BME280;41295;48.518;9.206;2023-04-02T06:25:45;96717.56;;;8.41;77.75
32251;BME280;41295;48.518;9.206;2023-04-02T06:27:50;96718.31;;;8.43;77.08
32251;BME280;41295;48.518;9.206;2023-04-02T06:29:58;96717.91;;;8.54;76.26
32251;BME280;41295;48.518;9.206;2023-04-02T06:32:04;96717.91;;;8.54;75.77
32251;BME280;41295;48.518;9.206;2023-04-02T06:34:12;96722.50;;;8.48;75.99
32251;BME280;41295;48.518;9.206;2023-04-02T06:36:16;96725.03;;;8.49;76.08
32251;BME280;41295;48.518;9.206;2023-04-02T06:38:22;96724.19;;;8.49;76.44
32251;BME280;41295;48.518;9.206;2023-04-02T06:40:32;96728.28;;;8.56;76.11
32251;BME280;41295;48.518;9.206;2023-04-02T06:42:37;96734.41;;;8.53;76.72
32251;BME280;41295;48.518;9.206;2023-04-02T06:44:43;96730.03;;;8.56;76.32
32251;BME280;41295;48.518;9.206;2023-04-02T06:46:50;96741.16;;;8.59;76.80
32251;BME280;41295;48.518;9.206;2023-04-02T06:48:58;96738.81;;;8.75;76.00
32251;BME280;41295;48.518;9.206;2023-04-02T06:51:06;96747.03;;;8.64;76.40
32251;BME280;41295;48.518;9.206;2023-04-02T06:53:18;96751.25;;;8.67;76.63
32251;BME280;41295;48.518;9.206;2023-04-02T06:55:26;96750.53;;;8.63;76.75
32251;BME280;41295;48.518;9.206;2023-04-02T06:57:31;96756.84;;;8.80;75.72
32251;BME280;41295;48.518;9.206;2023-04-02T06:59:36;96759.66;;;8.74;76.11
32251;BME280;41295;48.518;9.206;2023-04-02T07:01:40;96763.16;;;8.73;76.47
32251;BME280;41295;48.518;9.206;2023-04-02T07:03:46;96765.22;;;8.87;76.12
32251;BME280;41295;48.518;9.206;2023-04-02T07:05:49;96764.09;;;8.94;75.54
32251;BME280;41295;48.518;9.206;2023-04-02T07:07:52;96772.16;;;8.88;75.85
32251;BME280;41295;48.518;9.206;2023-04-02T07:09:55;96777.44;;;8.85;76.02
32251;BME280;41295;48.518;9.206;2023-04-02T07:11:57;96775.63;;;8.87;76.10
32251;BME280;41295;48.518;9.206;2023-04-02T07:14:00;96780.72;;;8.90;76.29
32251;BME280;41295;48.518;9.206;2023-04-02T07:16:04;96782.16;;;8.97;75.69
32251;BME280;41295;48.518;9.206;2023-04-02T07:18:09;96790.09;;;8.94;75.53
32251;BME280;41295;48.518;9.206;2023-04-02T07:20:24;96790.16;;;9.15;74.77
32251;BME280;41295;48.518;9.206;2023-04-02T07:22:27;96791.41;;;9.05;75.30
32251;BME280;41295;48.518;9.206;2023-04-02T07:24:30;96793.72;;;9.12;74.86
32251;BME280;41295;48.518;9.206;2023-04-02T07:26:32;96794.69;;;9.10;75.18
32251;BME280;41295;48.518;9.206;2023-04-02T07:28:35;96799.72;;;9.14;75.29
32251;BME280;41295;48.518;9.206;2023-04-02T07:30:37;96801.84;;;9.27;74.14
32251;BME280;41295;48.518;9.206;2023-04-02T07:32:40;96804.97;;;9.35;72.62
32251;BME280;41295;48.518;9.206;2023-04-02T07:34:43;96803.63;;;9.47;72.62
32251;BME280;41295;48.518;9.206;2023-04-02T07:36:47;96805.81;;;9.36;73.05
32251;BME280;41295;48.518;9.206;2023-04-02T07:38:49;96811.19;;;9.31;73.46
32251;BME280;41295;48.518;9.206;2023-04-02T07:40:52;96816.97;;;9.40;73.27
32251;BME280;41295;48.518;9.206;2023-04-02T07:42:55;96813.88;;;9.52;70.90
32251;BME280;41295;48.518;9.206;2023-04-02T07:44:57;96816.56;;;9.49;70.69
32251;BME280;41295;48.518;9.206;2023-04-02T07:47:00;96814.69;;;9.53;70.28
32251;BME280;41295;48.518;9.206;2023-04-02T07:49:03;96823.50;;;9.71;68.85
32251;BME280;41295;48.518;9.206;2023-04-02T07:51:14;96820.59;;;9.79;68.45
32251;BME280;41295;48.518;9.206;2023-04-02T07:53:26;96825.81;;;9.79;68.57
32251;BME280;41295;48.518;9.206;2023-04-02T07:55:30;96823.13;;;9.59;68.87
32251;BME280;41295;48.518;9.206;2023-04-02T07:57:36;96826.81;;;9.74;67.79
32251;BME280;41295;48.518;9.206;2023-04-02T07:59:44;96827.53;;;9.78;67.20
32251;BME280;41295;48.518;9.206;2023-04-02T08:01:46;96828.06;;;9.86;67.93
32251;BME280;41295;48.518;9.206;2023-04-02T08:03:50;96831.84;;;9.79;69.07
32251;BME280;41295;48.518;9.206;2023-04-02T08:05:56;96838.25;;;9.93;68.67
32251;BME280;41295;48.518;9.206;2023-04-02T08:07:59;96841.28;;;10.03;68.66
32251;BME280;41295;48.518;9.206;2023-04-02T08:10:04;96845.47;;;9.86;69.26
32251;BME280;41295;48.518;9.206;2023-04-02T08:12:08;96847.22;;;9.85;68.90
32251;BME280;41295;48.518;9.206;2023-04-02T08:14:12;96852.72;;;9.78;69.45
32251;BME280;41295;48.518;9.206;2023-04-02T08:16:14;96856.66;;;9.88;68.03
32251;BME280;41295;48.518;9.206;2023-04-02T08:18:20;96853.59;;;9.78;68.42
32251;BME280;41295;48.518;9.206;2023-04-02T08:20:23;96851.06;;;9.77;68.42
32251;BME280;41295;48.518;9.206;2023-04-02T08:22:26;96868.03;;;9.85;67.63
32251;BME280;41295;48.518;9.206;2023-04-02T08:24:29;96864.06;;;9.97;66.21
32251;BME280;41295;48.518;9.206;2023-04-02T08:26:33;96866.97;;;9.91;66.71
32251;BME280;41295;48.518;9.206;2023-04-02T08:28:36;96873.84;;;9.92;66.57
32251;BME280;41295;48.518;9.206;2023-04-02T08:30:39;96872.75;;;9.77;66.70
32251;BME280;41295;48.518;9.206;2023-04-02T08:32:42;96881.72;;;10.11;65.80
32251;BME280;41295;48.518;9.206;2023-04-02T08:34:45;96882.44;;;9.94;66.47
32251;BME280;41295;48.518;9.206;2023-04-02T08:36:47;96884.97;;;9.96;66.73
32251;BME280;41295;48.518;9.206;2023-04-02T08:38:50;96883.53;;;9.89;66.86
32251;BME280;41295;48.518;9.206;2023-04-02T08:40:55;96889.84;;;9.83;67.69
32251;BME280;41295;48.518;9.206;2023-04-02T08:43:16;96890.91;;;9.79;67.68
32251;BME280;41295;48.518;9.206;2023-04-02T08:45:27;96894.53;;;9.95;66.91
32251;BME280;41295;48.518;9.206;2023-04-02T08:47:34;96897.28;;;10.13;65.78
32251;BME280;41295;48.518;9.206;2023-04-02T08:49:41;96897.91;;;10.20;65.60
32251;BME280;41295;48.518;9.206;2023-04-02T08:51:46;96894.31;;;10.02;66.50
32251;BME280;41295;48.518;9.206;2023-04-02T08:53:50;96895.88;;;10.06;66.42
32251;BME280;41295;48.518;9.206;2023-04-02T08:55:56;96907.00;;;10.09;66.32
32251;BME280;41295;48.518;9.206;2023-04-02T08:58:16;96909.81;;;10.05;66.70
32251;BME280;41295;48.518;9.206;2023-04-02T09:00:26;96908.19;;;10.23;65.40
32251;BME280;41295;48.518;9.206;2023-04-02T09:02:37;96904.72;;;10.02;66.47
32251;BME280;41295;48.518;9.206;2023-04-02T09:04:41;96908.44;;;9.96;67.20
32251;BME280;41295;48.518;9.206;2023-04-02T09:06:45;96909.44;;;9.92;67.49
32251;BME280;41295;48.518;9.206;2023-04-02T09:08:50;96916.50;;;9.90;67.64
32251;BME280;41295;48.518;9.206;2023-04-02T09:10:59;96915.44;;;9.94;67.06
32251;BME280;41295;48.518;9.206;2023-04-02T09:13:06;96915.50;;;9.92;67.39
32251;BME280;41295;48.518;9.206;2023-04-02T09:15:21;96922.31;;;9.96;67.19
32251;BME280;41295;48.518;9.206;2023-04-02T09:17:26;96916.66;;;10.07;65.72
32251;BME280;41295;48.518;9.206;2023-04-02T09:19:36;96923.97;;;10.20;65.02
32251;BME280;41295;48.518;9.206;2023-04-02T09:21:40;96927.72;;;10.13;65.81
32251;BME280;41295;48.518;9.206;2023-04-02T09:23:44;96928.38;;;10.18;65.91
32251;BME280;41295;48.518;9.206;2023-04-02T09:25:50;96931.44;;;10.28;65.11
32251;BME280;41295;48.518;9.206;2023-04-02T09:28:04;96944.94;;;10.38;65.04
32251;BME280;41295;48.518;9.206;2023-04-02T09:30:13;96936.44;;;10.55;64.66
32251;BME280;41295;48.518;9.206;2023-04-02T09:32:46;96945.25;;;10.30;64.56
32251;BME280;41295;48.518;9.206;2023-04-02T09:35:04;96944.47;;;10.50;63.23
32251;BME280;41295;48.518;9.206;2023-04-02T09:37:17;96943.88;;;10.42;63.80
32251;BME280;41295;48.518;9.206;2023-04-02T09:39:24;96947.88;;;10.51;63.04
32251;BME280;41295;48.518;9.206;2023-04-02T09:41:28;96952.63;;;10.41;63.37
32251;BME280;41295;48.518;9.206;2023-04-02T09:43:32;96958.50;;;10.46;64.00
32251;BME280;41295;48.518;9.206;2023-04-02T09:45:36;96958.03;;;10.36;64.61
32251;BME280;41295;48.518;9.206;2023-04-02T09:47:39;96963.91;;;10.41;64.24
32251;BME280;41295;48.518;9.206;2023-04-02T09:49:44;96967.78;;;10.53;63.70
32251;BME280;41295;48.518;9.206;2023-04-02T09:52:05;96965.38;;;10.47;64.17
32251;BME280;41295;48.518;9.206;2023-04-02T09:54:13;96968.00;;;10.47;64.64
32251;BME280;41295;48.518;9.206;2023-04-02T09:56:18;96966.22;;;10.49;64.28
32251;BME280;41295;48.518;9.206;2023-04-02T09:58:22;96964.38;;;10.72;64.00
32251;BME280;41295;48.518;9.206;2023-04-02T10:00:25;96966.22;;;10.70;64.21
32251;BME280;41295;48.518;9.206;2023-04-02T10:02:32;96973.06;;;10.73;62.67
32251;BME280;41295;48.518;9.206;2023-04-02T10:04:38;96972.25;;;10.70;62.96
32251;BME280;41295;48.518;9.206;2023-04-02T10:06:49;96970.66;;;10.68;63.14
32251;BME280;41295;48.518;9.206;2023-04-02T10:08:54;96979.19;;;10.72;62.68
32251;BME280;41295;48.518;9.206;2023-04-02T10:10:58;96976.06;;;10.84;62.30
32251;BME280;41295;48.518;9.206;2023-04-02T10:13:05;96977.88;;;10.82;62.36
32251;BME280;41295;48.518;9.206;2023-04-02T10:15:14;96989.47;;;10.95;61.06
32251;BME280;41295;48.518;9.206;2023-04-02T10:17:22;96986.22;;;11.10;60.58
32251;BME280;41295;48.518;9.206;2023-04-02T10:19:29;96984.06;;;11.00;61.25
32251;BME280;41295;48.518;9.206;2023-04-02T10:21:35;96995.53;;;10.96;61.34
32251;BME280;41295;48.518;9.206;2023-04-02T10:23:41;96996.84;;;10.86;61.57
32251;BME280;41295;48.518;9.206;2023-04-02T10:25:50;96993.47;;;11.24;60.36
32251;BME280;41295;48.518;9.206;2023-04-02T10:28:04;96992.06;;;11.16;60.66
32251;BME280;41295;48.518;9.206;2023-04-02T10:30:18;97000.91;;;11.12;60.67
32251;BME280;41295;48.518;9.206;2023-04-02T10:32:27;97000.75;;;10.96;61.21
32251;BME280;41295;48.518;9.206;2023-04-02T10:34:36;96998.47;;;10.88;61.42
32251;BME280;41295;48.518;9.206;2023-04-02T10:36:47;96999.72;;;10.79;61.35
32251;BME280;41295;48.518;9.206;2023-04-02T10:38:58;96996.38;;;10.76;62.00
32251;BME280;41295;48.518;9.206;2023-04-02T10:41:08;97006.78;;;10.77;62.77
32251;BME280;41295;48.518;9.206;2023-04-02T10:45:50;97009.63;;;10.92;62.50
32251;BME280;41295;48.518;9.206;2023-04-02T10:47:59;97008.78;;;10.91;62.71
32251;BME280;41295;48.518;9.206;2023-04-02T10:50:22;97014.97;;;10.89;62.65
32251;BME280;41295;48.518;9.206;2023-04-02T10:52:33;97016.19;;;11.01;62.82
32251;BME280;41295;48.518;9.206;2023-04-02T10:54:44;97022.19;;;11.24;60.08
32251;BME280;41295;48.518;9.206;2023-04-02T10:56:48;97018.78;;;11.22;60.25
32251;BME280;41295;48.518;9.206;2023-04-02T10:58:57;97017.94;;;11.21;60.66
32251;BME280;41295;48.518;9.206;2023-04-02T11:01:04;97013.13;;;11.12;61.35
32251;BME280;41295;48.518;9.206;2023-04-02T11:03:13;97022.66;;;11.13;61.82
32251;BME280;41295;48.518;9.206;2023-04-02T11:05:21;97024.34;;;11.14;61.13
32251;BME280;41295;48.518;9.206;2023-04-02T11:07:26;97024.25;;;11.15;61.15
32251;BME280;41295;48.518;9.206;2023-04-02T11:09:36;97026.25;;;11.29;60.76
32251;BME280;41295;48.518;9.206;2023-04-02T11:11:43;97028.69;;;11.34;60.13
32251;BME280;41295;48.518;9.206;2023-04-02T11:13:52;97027.41;;;11.24;60.36
32251;BME280;41295;48.518;9.206;2023-04-02T11:15:57;97033.44;;;11.24;60.76
32251;BME280;41295;48.518;9.206;2023-04-02T11:18:00;97028.88;;;11.29;60.66
32251;BME280;41295;48.518;9.206;2023-04-02T11:22:40;97034.88;;;11.31;60.53
32251;BME280;41295;48.518;9.206;2023-04-02T11:24:45;97035.72;;;11.32;60.56
32251;BME280;41295;48.518;9.206;2023-04-02T11:26:50;97034.72;;;11.35;60.77